Saint-Timothee, Canada
Current Conditions -  °F | °C
As of 1:00 PM on Friday 19 Dec 2014 (Local Time) from CYUL Reporting Station
Few Clouds Few Clouds  
Wind Chill: 13°   Ceiling: Unl
Heat Index: 23°   Visibility: 15mi
Dew Point: 14°   Wind: 9mph
Humidity: 68%   Direction: 260°W
Pressure: 30.1"   Gusts: NA
Location:  45.28°N, 74.05°W
Report Text: CYUL 191800Z 26008KT 15SM FEW018 FEW240 M05/M10 A3010 RMK SC1CI1 SLP195
Loading
Personal Weather Stations






























Interactive Weather Map New forecast layout! Learn more

10-Day Weather Forecast

Advertisements
Track Severe Weather on mobile